• Join FlightAware (Why Join?)
  • Login
  • US Flag 
Gobble Gobble! 
03:56PM EST


 

Airport Tracker/Info


-or-


 

Live Flight TrackerFlight Track Log ✈ N23139 ✈ 05-May-2013 ✈ KCHS - KEWR

Flight Track Log - Related Links

Times and Time Zones

All times are in EDT time to prevent confusion due to time zone crossing. See the N23139 flight status page for this flight to view local times or setup timezone preferences in your user account.

Time Position Orientation Groundspeed Altitude Reporting Facility
EDT Latitude Longitude Course Direction KTS MPH feet Rate Location/Type
10:12AM 32.9792 -80.0103 13° North 210 242 3,400  Level Jacksonville Center
10:13AM 33.0414 -79.9933 13° North 210 242 5,400 2,220 Climbing Jacksonville Center
10:14AM 33.1482 -79.9500 North  Level FlightAware Approximate
10:14AM 33.1203 -79.9708 13° North 240 276 7,900  Level Jacksonville Center
10:15AM 33.2379 -79.9291 North  Level FlightAware Approximate
10:15AM 33.1989 -79.9486 13° North 278 320 10,500  Level Jacksonville Center
10:16AM 33.3266 -79.9034 23° Northeast  Level FlightAware Approximate
10:16AM 33.2861 -79.9233 14° North 296 341 12,400  Level Jacksonville Center
10:17AM 33.4145 -79.8738 North  Level FlightAware Approximate
10:17AM 33.3731 -79.9006 12° North 332 382 13,900  Level Jacksonville Center
10:18AM 33.5043 -79.8512 13° North  Level FlightAware Approximate
10:18AM 33.4747 -79.8722 13° North 354 407 15,400  Level Jacksonville Center
10:19AM 33.5783 -79.8436 13° North 364 419 16,900 1,440 Climbing Jacksonville Center
10:20AM 33.6903 -79.8122 13° North 382 440 18,400 1,440 Climbing Jacksonville Center
10:21AM 33.8022 -79.7811 13° North 395 455 19,800 1,320 Climbing Jacksonville Center
10:22AM 33.9161 -79.7469 14° North 407 468 21,100 1,140 Climbing Jacksonville Center
10:23AM 34.0344 -79.7175 12° North 420 483 22,100 960 Climbing Jacksonville Center
10:24AM 34.1544 -79.6806 14° North 430 495 23,100 960 Climbing Jacksonville Center
10:26AM 34.3992 -79.6492 North 433 498 25,000 1,080 Climbing Washington Center
10:27AM 34.5228 -79.6403 North 445 512 26,400 1,380 Climbing Washington Center
10:28AM 34.6461 -79.6336 North 445 512 27,800 1,440 Climbing Washington Center
10:29AM 34.7653 -79.6244 North 439 505 29,300 1,440 Climbing Washington Center
10:30AM 34.8775 -79.5769 19° North 422 486 30,800 1,440 Climbing Washington Center
10:31AM 34.9839 -79.5086 28° Northeast 422 486 32,300 1,380 Climbing Washington Center
10:32AM 35.0925 -79.4428 26° Northeast 422 486 33,600 1,080 Climbing Washington Center
10:33AM 35.1992 -79.3742 28° Northeast 427 491 34,500 660 Climbing Washington Center
10:34AM 35.3078 -79.3031 28° Northeast 427 491 35,000 240 Climbing Washington Center
10:35AM 35.4225 -79.2317 27° Northeast 456 525 35,000  Level Washington Center
10:36AM 35.5525 -79.1458 28° Northeast 470 541 35,000  Level Washington Center
10:37AM 35.6544 -79.0814 27° Northeast 470 541 35,000  Level Washington Center
10:38AM 35.7758 -79.0022 28° Northeast 470 541 35,000  Level Washington Center
10:39AM 35.9075 -78.9156 28° Northeast 470 541 35,000  Level Washington Center
10:40AM 36.0244 -78.8383 28° Northeast 470 541 35,000  Level Washington Center
10:41AM 36.1433 -78.7608 28° Northeast 475 547 35,000  Level Washington Center
10:42AM 36.2558 -78.6881 28° Northeast 465 535 35,000  Level Washington Center
10:43AM 36.3725 -78.6103 28° Northeast 465 535 35,000  Level Washington Center
10:44AM 36.4850 -78.5344 28° Northeast 465 535 35,000  Level Washington Center
10:45AM 36.5994 -78.4586 28° Northeast 465 535 35,000  Level Washington Center
10:46AM 36.6992 -78.3897 29° Northeast 465 535 35,000  Level Washington Center
10:47AM 36.8136 -78.3161 27° Northeast 465 535 35,000  Level Washington Center
10:48AM 36.9258 -78.2369 29° Northeast 465 535 35,000  Level Washington Center
10:49AM 37.0531 -78.1528 28° Northeast 470 541 35,000  Level Washington Center
10:50AM 37.1503 -78.0856 29° Northeast 454 522 35,000  Level Washington Center
10:51AM 37.2603 -78.0108 28° Northeast 449 517 35,000  Level Washington Center
10:52AM 37.3725 -77.9361 28° Northeast 449 517 35,000  Level Washington Center
10:53AM 37.4844 -77.8608 28° Northeast 444 511 35,000  Level Washington Center
10:54AM 37.5903 -77.7750 33° Northeast 444 511 35,000  Level Washington Center
10:55AM 37.6919 -77.6808 36° Northeast 450 518 35,000  Level Washington Center
10:56AM 37.7939 -77.5889 35° Northeast 450 518 35,000  Level Washington Center
10:57AM 37.8953 -77.4942 36° Northeast 450 518 35,000  Level Washington Center
10:58AM 37.9969 -77.4019 36° Northeast 450 518 35,000  Level Washington Center
10:59AM 38.0961 -77.3147 35° Northeast 450 518 35,000  Level Washington Center
11:00AM 38.1956 -77.2192 37° Northeast 450 518 35,000  Level Washington Center
11:01AM 38.2992 -77.1208 37° Northeast 450 518 35,000  Level Washington Center
11:02AM 38.4086 -77.0250 34° Northeast 450 518 35,000  Level Washington Center
11:03AM 38.5078 -76.9289 37° Northeast 450 518 35,000  Level Washington Center
11:04AM 38.6089 -76.8378 35° Northeast 445 512 35,000  Level Washington Center
11:05AM 38.7078 -76.7383 38° Northeast 445 512 35,000 -180 Level Washington Center
11:06AM 38.8025 -76.6333 41° Northeast 445 512 34,700 -600 Descending Washington Center
11:07AM 38.8950 -76.5250 42° Northeast 445 512 33,800 -1,320 Descending Washington Center
11:08AM 38.9897 -76.4169 42° Northeast 445 512 32,200 -1,800 Descending Washington Center
11:09AM 39.0800 -76.3108 42° Northeast 445 512 30,300 -1,980 Descending Washington Center
11:10AM 39.1722 -76.2019 42° Northeast 445 512 28,300 -1,680 Descending Washington Center
11:11AM 39.2583 -76.1061 41° Northeast 445 512 27,000 -1,200 Descending Washington Center
11:12AM 39.3483 -76.0022 42° Northeast 440 506 26,000 -1,260 Descending Washington Center
11:13AM 39.4381 -75.8953 43° Northeast 440 506 24,500 -1,500 Descending Washington Center
11:14AM 39.5239 -75.7961 42° Northeast 429 494 23,000 -1,560 Descending Washington Center
11:15AM 39.6094 -75.6939 43° Northeast 419 482 21,500 -1,500 Descending Washington Center
11:16AM 39.6928 -75.5942 43° Northeast 413 475 20,100 -1,500 Descending Washington Center
11:17AM 39.7739 -75.4969 43° Northeast 407 468 18,500 -1,860 Descending Washington Center
11:18AM 39.8531 -75.3997 43° Northeast 396 456 16,400 -2,340 Descending Washington Center
11:19AM 39.9300 -75.3075 43° Northeast 384 442 13,900 -1,920 Descending Washington Center
11:20AM 40.0131 -75.2069 43° Northeast 373 429 12,700 -1,260 Descending Washington Center
11:21AM 40.0856 -75.1142 44° Northeast 368 423 11,400 -1,020 Descending Washington Center
11:22AM 40.1539 -75.0325 42° Northeast 356 410 10,700 -1,080 Descending Washington Center
11:23AM 40.2119 -74.9611 43° Northeast 316 364 9,300 -1,500 Descending Washington Center
11:24AM 40.2500 -74.9000 51° Northeast 268 308 8,000 -780 Descending New York TRACON
11:25AM 40.3000 -74.8500 37° Northeast 259 298 8,000 -420 Level New York TRACON
11:26AM 40.3500 -74.7667 52° Northeast 263 303 7,300 -900 Descending New York TRACON
11:27AM 40.3667 -74.6833 75° East 254 292 6,300 -1,020 Descending New York TRACON
11:28AM 40.3833 -74.6000 75° East 242 278 5,300 -1,020 Descending New York TRACON
11:29AM 40.4000 -74.5167 75° East 230 265 4,300 -960 Descending New York TRACON
11:30AM 40.4000 -74.4333 90° East 204 235 3,400 -660 Descending New York TRACON
11:31AM 40.4167 -74.3667 72° East 196 226 3,000 -240 Descending New York TRACON
11:32AM 40.4500 -74.3167 49° Northeast 194 223 3,000  Level New York TRACON
11:33AM 40.5000 -74.2833 27° Northeast 162 186 3,000  Level New York TRACON
11:34AM 40.5333 -74.2667 21° North 161 185 3,000 -300 Level New York TRACON
11:35AM 40.5667 -74.2333 37° Northeast 161 185 2,400 -600 Descending New York TRACON